createdAt,value
2019-05-18T00:00:58.496Z,13.20
2019-05-18T00:03:30.882Z,13.10
2019-05-18T00:06:03.302Z,13.10
2019-05-18T00:08:35.579Z,13.00
2019-05-18T00:11:08.222Z,13.10
2019-05-18T00:13:40.495Z,13.00
2019-05-18T00:16:12.886Z,12.90
2019-05-18T00:18:45.260Z,12.90
2019-05-18T00:21:18.042Z,12.90
2019-05-18T00:23:50.477Z,12.80
2019-05-18T00:26:22.929Z,12.80
2019-05-18T00:28:55.321Z,12.80
2019-05-18T00:31:27.685Z,12.80
2019-05-18T00:33:59.962Z,12.70
2019-05-18T00:36:32.277Z,12.70
2019-05-18T00:39:05.449Z,12.70
2019-05-18T00:41:37.749Z,12.60
2019-05-18T00:44:09.993Z,12.60
2019-05-18T00:46:42.516Z,12.60
2019-05-18T00:49:15.042Z,12.50
2019-05-18T00:51:47.361Z,12.50
2019-05-18T00:54:23.268Z,12.50
2019-05-18T00:56:57.330Z,12.50
2019-05-18T00:59:29.669Z,12.40
2019-05-18T01:02:02.039Z,12.50
2019-05-18T01:04:34.597Z,12.40
2019-05-18T01:07:06.972Z,12.40
2019-05-18T01:09:39.328Z,12.40
2019-05-18T01:12:11.938Z,12.30
2019-05-18T01:14:44.308Z,12.30
2019-05-18T01:17:16.745Z,12.30
2019-05-18T01:19:49.086Z,12.20
2019-05-18T01:22:21.648Z,12.20
2019-05-18T01:24:54.108Z,12.20
2019-05-18T01:27:26.543Z,12.10
2019-05-18T01:29:58.921Z,12.10
2019-05-18T01:32:31.407Z,12.10
2019-05-18T01:35:04.450Z,12.00
2019-05-18T01:37:36.813Z,12.00
2019-05-18T01:40:10.268Z,12.00
2019-05-18T01:42:42.517Z,12.00
2019-05-18T01:45:17.220Z,11.90
2019-05-18T01:47:49.155Z,11.90
2019-05-18T01:50:21.549Z,11.90
2019-05-18T01:52:54.422Z,11.80
2019-05-18T01:55:26.670Z,11.80
2019-05-18T01:57:59.011Z,11.80
2019-05-18T02:00:31.374Z,11.80
2019-05-18T02:03:03.724Z,11.80
2019-05-18T02:05:36.115Z,11.70
2019-05-18T02:08:08.376Z,11.80
2019-05-18T02:13:08.770Z,11.80
2019-05-18T02:15:41.170Z,11.70
2019-05-18T02:18:27.997Z,11.70
2019-05-18T02:20:48.157Z,11.70
2019-05-18T02:23:20.664Z,11.70
2019-05-18T02:25:53.275Z,11.70
2019-05-18T02:28:27.231Z,11.70
2019-05-18T02:30:59.546Z,11.60
2019-05-18T02:33:32.039Z,11.60
2019-05-18T02:36:04.581Z,11.60
2019-05-18T02:38:37.157Z,11.50
2019-05-18T02:41:09.448Z,11.50
2019-05-18T02:43:41.865Z,11.50
2019-05-18T02:46:14.203Z,11.40
2019-05-18T02:48:50.129Z,11.40
2019-05-18T02:51:20.919Z,11.40
2019-05-18T02:53:53.318Z,11.30
2019-05-18T02:56:26.008Z,11.30
2019-05-18T02:58:58.661Z,11.30
2019-05-18T03:01:31.040Z,11.30
2019-05-18T03:04:03.567Z,11.20
2019-05-18T03:06:35.878Z,11.20
2019-05-18T03:09:08.558Z,11.20
2019-05-18T03:11:41.130Z,11.20
2019-05-18T03:14:13.792Z,11.10
2019-05-18T03:16:46.629Z,11.10
2019-05-18T03:19:19.477Z,11.10
2019-05-18T03:21:51.898Z,11.10
2019-05-18T03:24:24.353Z,11.10
2019-05-18T03:26:56.502Z,11.00
2019-05-18T03:29:28.783Z,11.00
2019-05-18T03:32:01.283Z,11.00
2019-05-18T03:34:34.155Z,11.00
2019-05-18T03:37:06.505Z,11.00
2019-05-18T03:39:39.771Z,10.90
2019-05-18T03:42:12.580Z,10.90
2019-05-18T03:44:45.955Z,10.90
2019-05-18T03:47:18.781Z,10.90
2019-05-18T03:49:52.187Z,10.90
2019-05-18T03:52:25.145Z,10.90
2019-05-18T03:54:57.979Z,10.90
2019-05-18T03:57:30.338Z,10.90
2019-05-18T04:00:02.773Z,10.90
2019-05-18T04:02:35.545Z,10.80
2019-05-18T04:05:09.134Z,10.80
2019-05-18T04:07:41.516Z,10.80
2019-05-18T04:10:14.157Z,10.80
2019-05-18T04:12:46.577Z,10.80
2019-05-18T04:15:19.401Z,10.80
2019-05-18T04:17:51.905Z,10.80
2019-05-18T04:20:24.340Z,10.80
2019-05-18T04:22:56.664Z,10.80
2019-05-18T04:25:29.409Z,10.80
2019-05-18T04:28:02.323Z,10.80
2019-05-18T04:30:35.825Z,10.80
2019-05-18T04:33:08.370Z,10.90
2019-05-18T04:35:40.682Z,10.90
2019-05-18T04:38:13.113Z,10.90
2019-05-18T04:40:45.728Z,11.00
2019-05-18T04:43:18.183Z,11.00
2019-05-18T04:45:50.625Z,11.10
2019-05-18T04:48:23.054Z,11.10
2019-05-18T04:50:55.689Z,11.20
2019-05-18T04:53:27.944Z,11.30
2019-05-18T04:56:00.754Z,11.40
2019-05-18T04:58:34.183Z,11.40
2019-05-18T05:01:06.534Z,11.50
2019-05-18T05:03:39.126Z,11.60
2019-05-18T05:06:11.818Z,11.70
2019-05-18T05:08:44.150Z,11.80
2019-05-18T05:11:16.908Z,11.90
2019-05-18T05:13:49.093Z,12.00
2019-05-18T05:16:21.813Z,12.10
2019-05-18T05:18:54.517Z,12.10
2019-05-18T05:21:26.848Z,12.20
2019-05-18T05:23:59.339Z,12.30
2019-05-18T05:26:31.706Z,12.40
2019-05-18T05:29:04.682Z,12.50
2019-05-18T05:31:37.885Z,12.60
2019-05-18T05:34:10.268Z,12.60
2019-05-18T05:36:42.814Z,12.70
2019-05-18T05:39:15.504Z,12.80
2019-05-18T05:41:47.986Z,12.90
2019-05-18T05:44:20.366Z,13.00
2019-05-18T05:46:53.132Z,13.10
2019-05-18T05:49:26.194Z,13.20
2019-05-18T05:51:59.041Z,13.30
2019-05-18T05:54:31.342Z,13.40
2019-05-18T05:57:04.177Z,13.60
2019-05-18T05:59:36.766Z,13.70
2019-05-18T06:02:09.105Z,13.80
2019-05-18T06:04:41.321Z,13.90
2019-05-18T06:07:13.777Z,14.00
2019-05-18T06:09:46.261Z,14.10
2019-05-18T06:12:18.572Z,14.20
2019-05-18T06:14:50.980Z,14.30
2019-05-18T06:17:23.777Z,14.40
2019-05-18T06:19:56.930Z,14.50
2019-05-18T06:22:29.563Z,14.60
2019-05-18T06:25:02.422Z,14.70
2019-05-18T06:27:35.562Z,14.80
2019-05-18T06:30:08.708Z,14.90
2019-05-18T06:32:41.282Z,14.90
2019-05-18T06:35:14.121Z,15.00
2019-05-18T06:37:47.202Z,15.10
2019-05-18T06:40:19.836Z,15.10
2019-05-18T06:42:52.433Z,15.20
2019-05-18T06:45:25.121Z,15.20
2019-05-18T06:47:58.134Z,15.30
2019-05-18T06:50:31.156Z,15.40
2019-05-18T06:53:03.671Z,15.40
2019-05-18T06:55:36.044Z,15.50
2019-05-18T06:58:09.827Z,15.50
2019-05-18T07:00:42.363Z,15.60
2019-05-18T07:03:14.694Z,15.60
2019-05-18T07:05:47.686Z,15.70
2019-05-18T07:08:20.368Z,15.80
2019-05-18T07:10:54.530Z,15.90
2019-05-18T07:13:27.990Z,15.90
2019-05-18T07:16:00.283Z,16.00
2019-05-18T07:18:32.937Z,16.10
2019-05-18T07:21:06.118Z,16.20
2019-05-18T07:23:39.451Z,16.30
2019-05-18T07:26:12.031Z,16.40
2019-05-18T07:28:44.676Z,16.50
2019-05-18T07:31:17.290Z,16.50
2019-05-18T07:33:50.781Z,16.70
2019-05-18T07:36:23.770Z,16.80
2019-05-18T07:38:56.357Z,16.90
2019-05-18T07:41:29.961Z,17.00
2019-05-18T07:44:02.834Z,17.10
2019-05-18T07:46:35.525Z,17.20
2019-05-18T07:49:08.575Z,17.30
2019-05-18T07:51:41.485Z,17.30
2019-05-18T07:54:14.175Z,17.40
2019-05-18T07:56:46.837Z,17.50
2019-05-18T07:59:20.063Z,17.50
2019-05-18T08:01:53.759Z,17.50
2019-05-18T08:04:26.095Z,17.60
2019-05-18T08:06:58.830Z,17.60
2019-05-18T08:09:31.452Z,17.70
2019-05-18T08:12:03.890Z,17.70
2019-05-18T08:14:36.330Z,17.80
2019-05-18T08:17:09.255Z,17.80
2019-05-18T08:19:41.910Z,17.90
2019-05-18T08:22:14.437Z,18.00
2019-05-18T08:24:46.960Z,18.00
2019-05-18T08:27:19.440Z,18.10
2019-05-18T08:29:51.993Z,18.20
2019-05-18T08:32:24.411Z,18.20
2019-05-18T08:34:57.665Z,18.20
2019-05-18T08:37:29.992Z,18.30
2019-05-18T08:40:03.534Z,18.30
2019-05-18T08:42:36.450Z,18.30
2019-05-18T08:45:09.901Z,18.40
2019-05-18T08:47:42.694Z,18.50
2019-05-18T08:50:15.389Z,18.50
2019-05-18T08:52:47.612Z,18.60
2019-05-18T08:55:20.354Z,18.70
2019-05-18T08:57:53.448Z,18.70
2019-05-18T09:00:26.297Z,18.80
2019-05-18T09:02:58.731Z,18.90
2019-05-18T09:05:31.057Z,18.90
2019-05-18T09:08:03.810Z,18.90
2019-05-18T09:10:36.144Z,18.90
2019-05-18T09:13:08.540Z,19.00
2019-05-18T09:15:41.149Z,19.00
2019-05-18T09:18:14.022Z,19.10
2019-05-18T09:20:48.407Z,19.20
2019-05-18T09:23:21.341Z,19.20
2019-05-18T09:25:54.266Z,19.30
2019-05-18T09:28:28.644Z,19.40
2019-05-18T09:31:01.221Z,19.40
2019-05-18T09:33:34.725Z,19.50
2019-05-18T09:36:07.290Z,19.50
2019-05-18T09:38:39.753Z,19.60
2019-05-18T09:41:12.161Z,19.50
2019-05-18T09:43:44.673Z,19.60
2019-05-18T09:46:16.987Z,19.70
2019-05-18T09:48:49.394Z,19.80
2019-05-18T09:51:21.896Z,19.80
2019-05-18T09:53:54.454Z,19.90
2019-05-18T09:56:28.854Z,19.90
2019-05-18T09:59:01.359Z,20.00
2019-05-18T10:01:34.631Z,20.00
2019-05-18T10:04:07.509Z,20.10
2019-05-18T10:06:40.952Z,20.10
2019-05-18T10:09:13.879Z,20.20
2019-05-18T10:11:46.574Z,20.30
2019-05-18T10:14:18.929Z,20.30
2019-05-18T10:17:00.437Z,20.40
2019-05-18T10:19:27.666Z,20.40
2019-05-18T10:22:00.421Z,20.50
2019-05-18T10:24:33.050Z,20.50
2019-05-18T10:27:07.746Z,20.50
2019-05-18T10:29:41.166Z,20.50
2019-05-18T10:32:15.802Z,20.60
2019-05-18T10:34:49.523Z,20.60
2019-05-18T10:37:22.861Z,20.70
2019-05-18T10:39:55.403Z,20.70
2019-05-18T10:42:28.258Z,20.70
2019-05-18T10:45:01.149Z,20.80
2019-05-18T10:47:33.945Z,20.90
2019-05-18T10:50:07.236Z,20.90
2019-05-18T10:52:40.678Z,21.00
2019-05-18T10:55:13.018Z,21.00
2019-05-18T10:57:45.750Z,21.10
2019-05-18T11:00:19.582Z,21.20
2019-05-18T11:02:55.414Z,21.20
2019-05-18T11:05:28.452Z,21.20
2019-05-18T11:08:01.361Z,21.30
2019-05-18T11:10:33.807Z,21.40
2019-05-18T11:13:06.357Z,21.40
2019-05-18T11:15:38.930Z,21.50
2019-05-18T11:18:11.984Z,21.50
2019-05-18T11:20:45.193Z,21.50
2019-05-18T11:23:18.320Z,21.60
2019-05-18T11:25:51.259Z,21.60
2019-05-18T11:28:25.987Z,21.60
2019-05-18T11:30:58.762Z,21.70
2019-05-18T11:33:32.554Z,21.70
2019-05-18T11:36:06.300Z,21.80
2019-05-18T11:38:40.256Z,21.80
2019-05-18T11:41:12.581Z,21.90
2019-05-18T11:43:45.948Z,22.00
2019-05-18T11:46:19.237Z,22.00
2019-05-18T11:48:53.516Z,22.10
2019-05-18T11:51:25.930Z,22.10
2019-05-18T11:53:58.763Z,22.20
2019-05-18T11:56:32.535Z,22.30
2019-05-18T11:59:05.329Z,22.30
2019-05-18T12:01:38.531Z,22.40
2019-05-18T12:04:11.048Z,22.50
2019-05-18T12:06:43.532Z,22.50
2019-05-18T12:09:16.635Z,22.50
2019-05-18T12:11:49.631Z,22.60
2019-05-18T12:14:22.216Z,22.70
2019-05-18T12:16:54.626Z,22.70
2019-05-18T12:19:27.213Z,22.80
2019-05-18T12:21:59.858Z,22.90
2019-05-18T12:24:33.669Z,22.90
2019-05-18T12:27:06.395Z,23.00
2019-05-18T12:29:39.300Z,23.00
2019-05-18T12:32:12.879Z,23.00
2019-05-18T12:34:45.607Z,23.10
2019-05-18T12:37:22.751Z,23.20
2019-05-18T12:39:55.166Z,23.30
2019-05-18T12:42:28.661Z,23.30
2019-05-18T12:45:02.169Z,23.40
2019-05-18T12:47:35.174Z,23.40
2019-05-18T12:50:08.582Z,23.60
2019-05-18T12:52:40.927Z,23.60
2019-05-18T12:55:13.769Z,23.70
2019-05-18T12:57:46.184Z,23.80
2019-05-18T13:00:19.225Z,23.90
2019-05-18T13:02:51.453Z,24.00
2019-05-18T13:05:23.787Z,24.10
2019-05-18T13:07:56.066Z,24.20
2019-05-18T13:10:28.608Z,24.30
2019-05-18T13:13:01.193Z,24.40
2019-05-18T13:15:34.520Z,24.40
2019-05-18T13:18:06.850Z,24.50
2019-05-18T13:20:39.226Z,24.50
2019-05-18T13:23:11.721Z,24.60
2019-05-18T13:25:44.106Z,24.60
2019-05-18T13:28:16.522Z,24.70
2019-05-18T13:30:49.077Z,24.80
2019-05-18T13:33:22.149Z,24.80
2019-05-18T13:35:54.573Z,24.90
2019-05-18T13:38:26.924Z,25.00
2019-05-18T13:40:59.298Z,25.00
2019-05-18T13:43:31.949Z,25.00
2019-05-18T13:46:04.516Z,25.10
2019-05-18T13:51:14.774Z,25.10
2019-05-18T13:53:47.322Z,25.00
2019-05-18T13:56:19.961Z,25.00
2019-05-18T13:58:53.107Z,25.00
2019-05-18T14:01:25.841Z,25.10
2019-05-18T14:03:58.578Z,25.10
2019-05-18T14:06:31.011Z,25.20
2019-05-18T14:09:04.142Z,25.20
2019-05-18T14:11:36.578Z,25.30
2019-05-18T14:14:09.035Z,25.30
2019-05-18T14:16:41.583Z,25.30
2019-05-18T14:19:14.016Z,25.30
2019-05-18T14:21:46.545Z,25.30
2019-05-18T14:24:18.877Z,25.30
2019-05-18T14:26:51.200Z,25.30
2019-05-18T14:29:23.421Z,25.30
2019-05-18T14:31:55.708Z,25.30
2019-05-18T14:34:27.929Z,25.30
2019-05-18T14:37:00.525Z,25.20
2019-05-18T14:39:32.945Z,25.20
2019-05-18T14:42:05.323Z,25.20
2019-05-18T14:44:37.641Z,25.10
2019-05-18T14:47:10.057Z,25.10
2019-05-18T14:49:42.770Z,25.10
2019-05-18T14:52:15.317Z,25.10
2019-05-18T14:54:48.484Z,25.10
2019-05-18T14:57:20.753Z,25.00
2019-05-18T14:59:53.254Z,25.00
2019-05-18T15:02:25.574Z,25.00
2019-05-18T15:04:57.971Z,24.90
2019-05-18T15:07:30.425Z,24.90
2019-05-18T15:10:03.074Z,24.90
2019-05-18T15:12:35.660Z,24.90
2019-05-18T15:15:08.580Z,24.80
2019-05-18T15:17:41.177Z,24.80
2019-05-18T15:20:13.835Z,24.70
2019-05-18T15:22:46.417Z,24.70
2019-05-18T15:25:18.931Z,24.70
2019-05-18T15:27:51.314Z,24.60
2019-05-18T15:30:23.923Z,24.60
2019-05-18T15:32:56.332Z,24.60
2019-05-18T15:35:28.813Z,24.50
2019-05-18T15:38:01.345Z,24.50
2019-05-18T15:40:34.750Z,24.50
2019-05-18T15:43:07.037Z,24.50
2019-05-18T15:45:39.437Z,24.50
2019-05-18T15:48:11.647Z,24.40
2019-05-18T15:50:43.863Z,24.40
2019-05-18T15:53:16.322Z,24.40
2019-05-18T15:55:48.577Z,24.30
2019-05-18T15:58:21.039Z,24.30
2019-05-18T16:00:53.453Z,24.30
2019-05-18T16:03:26.062Z,24.30
2019-05-18T16:05:58.428Z,24.30
2019-05-18T16:08:31.078Z,24.30
2019-05-18T16:11:04.680Z,24.30
2019-05-18T16:13:37.239Z,24.30
2019-05-18T16:16:10.910Z,24.30
2019-05-18T16:18:45.495Z,24.30
2019-05-18T16:21:19.214Z,24.30
2019-05-18T16:23:51.787Z,24.30
2019-05-18T16:26:24.502Z,24.30
2019-05-18T16:28:56.860Z,24.30
2019-05-18T16:31:29.233Z,24.30
2019-05-18T16:34:02.579Z,24.30
2019-05-18T16:36:35.189Z,24.30
2019-05-18T16:39:08.225Z,24.30
2019-05-18T16:41:40.693Z,24.30
2019-05-18T16:44:13.285Z,24.30
2019-05-18T16:46:45.790Z,24.30
2019-05-18T16:49:23.256Z,24.30
2019-05-18T16:51:56.573Z,24.20
2019-05-18T16:54:29.262Z,24.20
2019-05-18T16:57:01.917Z,24.20
2019-05-18T16:59:34.851Z,24.20
2019-05-18T17:02:07.598Z,24.20
2019-05-18T17:04:40.069Z,24.20
2019-05-18T17:07:13.150Z,24.20
2019-05-18T17:09:45.610Z,24.20
2019-05-18T17:12:18.291Z,24.20
2019-05-18T17:14:51.211Z,24.10
2019-05-18T17:17:24.216Z,24.10
2019-05-18T17:19:56.934Z,24.00
2019-05-18T17:22:29.315Z,23.90
2019-05-18T17:25:02.110Z,23.80
2019-05-18T17:27:35.202Z,23.70
2019-05-18T17:30:08.575Z,23.60
2019-05-18T17:32:41.305Z,23.50
2019-05-18T17:35:13.846Z,23.50
2019-05-18T17:37:46.081Z,23.40
2019-05-18T17:40:18.874Z,23.40
2019-05-18T17:42:51.185Z,23.40
2019-05-18T17:45:23.726Z,23.30
2019-05-18T17:47:56.252Z,23.20
2019-05-18T17:50:28.786Z,23.20
2019-05-18T17:53:01.914Z,23.20
2019-05-18T17:55:34.686Z,23.10
2019-05-18T17:58:07.150Z,23.10
2019-05-18T18:00:40.901Z,23.10
2019-05-18T18:03:13.332Z,23.00
2019-05-18T18:05:45.900Z,23.00
2019-05-18T18:08:19.017Z,22.90
2019-05-18T18:10:51.491Z,22.90
2019-05-18T18:13:24.682Z,22.80
2019-05-18T18:15:57.209Z,22.70
2019-05-18T18:18:29.688Z,22.70
2019-05-18T18:21:02.086Z,22.70
2019-05-18T18:23:34.727Z,22.70
2019-05-18T18:26:07.603Z,22.60
2019-05-18T18:28:40.287Z,22.60
2019-05-18T18:31:12.666Z,22.60
2019-05-18T18:33:45.081Z,22.50
2019-05-18T18:36:17.459Z,22.50
2019-05-18T18:38:49.946Z,22.40
2019-05-18T18:41:22.582Z,22.40
2019-05-18T18:43:55.366Z,22.40
2019-05-18T18:46:27.736Z,22.40
2019-05-18T18:49:00.339Z,22.30
2019-05-18T18:51:32.961Z,22.30
2019-05-18T18:54:05.765Z,22.30
2019-05-18T18:56:38.414Z,22.30
2019-05-18T18:59:12.092Z,22.20
2019-05-18T19:01:45.967Z,22.20
2019-05-18T19:04:18.528Z,22.20
2019-05-18T19:06:51.123Z,22.10
2019-05-18T19:09:23.777Z,22.10
2019-05-18T19:11:56.384Z,22.10
2019-05-18T19:14:28.731Z,22.00
2019-05-18T19:17:01.165Z,22.00
2019-05-18T19:19:33.587Z,21.90
2019-05-18T19:22:07.017Z,21.90
2019-05-18T19:24:39.997Z,21.90
2019-05-18T19:27:13.651Z,21.80
2019-05-18T19:29:46.770Z,21.80
2019-05-18T19:32:20.494Z,21.80
2019-05-18T19:34:53.468Z,21.80
2019-05-18T19:37:26.617Z,21.70
2019-05-18T19:40:00.566Z,21.70
2019-05-18T19:42:33.213Z,21.60
2019-05-18T19:45:06.480Z,21.60
2019-05-18T19:47:39.489Z,21.50
2019-05-18T19:50:12.633Z,21.50
2019-05-18T19:52:45.709Z,21.40
2019-05-18T19:55:18.659Z,21.30
2019-05-18T19:57:51.610Z,21.30
2019-05-18T20:00:24.310Z,21.30
2019-05-18T20:02:56.951Z,21.20
2019-05-18T20:05:29.870Z,21.10
2019-05-18T20:08:02.422Z,21.10
2019-05-18T20:10:34.780Z,21.00
2019-05-18T20:13:07.378Z,21.00
2019-05-18T20:15:41.737Z,20.90
2019-05-18T20:18:14.217Z,20.80
2019-05-18T20:20:46.757Z,20.70
2019-05-18T20:23:19.028Z,20.70
2019-05-18T20:25:51.641Z,20.60
2019-05-18T20:28:24.429Z,20.50
2019-05-18T20:31:00.598Z,20.50
2019-05-18T20:33:34.077Z,20.40
2019-05-18T20:36:06.960Z,20.40
2019-05-18T20:38:43.749Z,20.30
2019-05-18T20:41:17.507Z,20.30
2019-05-18T20:43:50.093Z,20.20
2019-05-18T20:46:22.926Z,20.20
2019-05-18T20:48:58.450Z,20.10
2019-05-18T20:51:30.951Z,20.10
2019-05-18T20:54:06.524Z,20.00
2019-05-18T20:56:39.261Z,19.90
2019-05-18T20:59:11.941Z,19.90
2019-05-18T21:01:44.735Z,19.80
2019-05-18T21:04:17.118Z,19.70
2019-05-18T21:06:49.386Z,19.70
2019-05-18T21:09:21.946Z,19.60
2019-05-18T21:11:55.765Z,19.60
2019-05-18T21:14:29.475Z,19.50
2019-05-18T21:17:05.200Z,19.40
2019-05-18T21:19:37.938Z,19.40
2019-05-18T21:22:10.163Z,19.30
2019-05-18T21:24:43.225Z,19.20
2019-05-18T21:27:16.017Z,19.20
2019-05-18T21:29:49.039Z,19.10
2019-05-18T21:32:22.033Z,19.00
2019-05-18T21:34:54.606Z,18.90
2019-05-18T21:37:28.498Z,18.90
2019-05-18T21:40:01.737Z,18.80
2019-05-18T21:42:34.493Z,18.80
2019-05-18T21:45:08.467Z,18.70
2019-05-18T21:47:40.819Z,18.70
2019-05-18T21:50:14.144Z,18.60
2019-05-18T21:52:46.881Z,18.60
2019-05-18T21:55:19.584Z,18.50
2019-05-18T21:57:51.886Z,18.40
2019-05-18T22:00:25.920Z,18.40
2019-05-18T22:03:00.310Z,18.40
2019-05-18T22:05:33.127Z,18.30
2019-05-18T22:08:05.580Z,18.30
2019-05-18T22:10:38.221Z,18.20
2019-05-18T22:13:10.555Z,18.20
2019-05-18T22:15:42.992Z,18.20
2019-05-18T22:18:24.004Z,18.10
2019-05-18T22:20:50.044Z,18.10
2019-05-18T22:23:22.367Z,18.10
2019-05-18T22:25:56.968Z,18.00
2019-05-18T22:28:29.148Z,18.00
2019-05-18T22:31:01.918Z,18.00
2019-05-18T22:33:34.900Z,17.90
2019-05-18T22:36:07.310Z,17.90
2019-05-18T22:38:39.776Z,17.80
2019-05-18T22:41:13.197Z,17.70
2019-05-18T22:43:47.153Z,17.70
2019-05-18T22:46:19.952Z,17.60
2019-05-18T22:48:52.502Z,17.60
2019-05-18T22:51:25.020Z,17.60
2019-05-18T22:53:58.246Z,17.50
2019-05-18T22:56:31.566Z,17.50
2019-05-18T22:59:04.987Z,17.40
2019-05-18T23:01:38.305Z,17.40
2019-05-18T23:04:12.617Z,17.40
2019-05-18T23:06:45.974Z,17.30
2019-05-18T23:09:18.873Z,17.30
2019-05-18T23:11:51.470Z,17.30
2019-05-18T23:14:23.945Z,17.20
2019-05-18T23:16:56.344Z,17.20
2019-05-18T23:19:28.784Z,17.20
2019-05-18T23:22:01.714Z,17.10
2019-05-18T23:24:34.209Z,17.10
2019-05-18T23:27:06.672Z,17.00
2019-05-18T23:29:39.017Z,17.00
2019-05-18T23:32:11.768Z,17.00
2019-05-18T23:34:44.367Z,16.90
2019-05-18T23:37:16.966Z,16.90
2019-05-18T23:39:49.593Z,16.90
2019-05-18T23:42:22.282Z,16.80
2019-05-18T23:44:54.682Z,16.80
2019-05-18T23:47:27.270Z,16.80
2019-05-18T23:49:59.711Z,16.70
2019-05-18T23:52:32.237Z,16.70
2019-05-18T23:55:05.213Z,16.60
2019-05-18T23:57:37.980Z,16.60
